Weather at Hory

Public forecast

Using degrees Celsius for public forecast. Weather courtesy of forecast.io.

Closest aviation weather report (METAR) to Hory

Closest report is Karlovy Vary International Airport, 5.4 nm (10.0 km) E. Retrieved 2021/07/31 06:00 UTC (4 minutes ago):

LKKV 310600Z 26007KT 220V290 9999 FEW023 17/11 Q1011

Closest aviation forecast (TAF) to Hory

Closest forecast is Karlovy Vary International Airport, 5.4 nm (10.0 km) E. Retrieved 2021/07/31 06:03 UTC (50 seconds ago):

TAF LKKV 310500Z 3106/0112 25010KT CAVOK TEMPO 3106/3118 26014G26KT BECMG 0101/0103 9999 BKN020 TEMPO 0104/0112 7000 SHRA BKN010 PROB30 TEMPO 0104/0112 4000 RA BKN005 BECMG 0105/0107 33008KT